createdAt,value
2023-03-22T00:01:18.608Z,86
2023-03-22T00:04:18.616Z,86
2023-03-22T00:07:18.606Z,86
2023-03-22T00:10:18.618Z,86
2023-03-22T00:13:18.607Z,86
2023-03-22T00:16:18.617Z,86
2023-03-22T00:19:18.610Z,86
2023-03-22T00:22:18.602Z,86
2023-03-22T00:25:18.611Z,86
2023-03-22T00:28:18.619Z,86
2023-03-22T00:31:18.618Z,86
2023-03-22T00:34:18.610Z,86
2023-03-22T00:37:18.604Z,86
2023-03-22T00:40:18.603Z,86
2023-03-22T00:43:18.606Z,86
2023-03-22T00:46:18.630Z,86
2023-03-22T00:49:18.635Z,86
2023-03-22T00:52:18.620Z,86
2023-03-22T00:55:18.651Z,86
2023-03-22T00:58:18.629Z,86
2023-03-22T01:01:18.670Z,86
2023-03-22T01:04:18.616Z,86
2023-03-22T01:07:18.617Z,86
2023-03-22T01:10:18.633Z,86
2023-03-22T01:16:18.668Z,86
2023-03-22T01:19:18.614Z,86
2023-03-22T01:22:18.612Z,86
2023-03-22T01:25:18.614Z,86
2023-03-22T01:28:18.626Z,86
2023-03-22T01:31:18.648Z,86
2023-03-22T01:34:18.630Z,86
2023-03-22T01:37:18.611Z,86
2023-03-22T01:40:18.627Z,86
2023-03-22T01:43:18.612Z,86
2023-03-22T01:46:18.658Z,86
2023-03-22T01:49:18.797Z,85
2023-03-22T01:52:18.605Z,85
2023-03-22T01:55:18.624Z,85
2023-03-22T01:58:18.644Z,85
2023-03-22T02:01:18.651Z,85
2023-03-22T02:04:18.633Z,85
2023-03-22T02:07:18.600Z,85
2023-03-22T02:10:18.617Z,85
2023-03-22T02:13:18.601Z,85
2023-03-22T02:16:18.664Z,85
2023-03-22T02:19:18.622Z,85
2023-03-22T02:22:18.590Z,85
2023-03-22T02:25:18.618Z,85
2023-03-22T02:28:18.666Z,85
2023-03-22T02:31:18.641Z,85
2023-03-22T02:34:18.618Z,85
2023-03-22T02:37:18.608Z,85
2023-03-22T02:40:18.626Z,85
2023-03-22T02:43:18.597Z,85
2023-03-22T02:46:18.631Z,85
2023-03-22T02:49:18.594Z,85
2023-03-22T02:52:18.600Z,85
2023-03-22T02:55:18.612Z,85
2023-03-22T02:58:18.585Z,85
2023-03-22T03:01:18.642Z,85
2023-03-22T03:04:18.628Z,85
2023-03-22T03:07:18.588Z,85
2023-03-22T03:10:18.598Z,85
2023-03-22T03:13:18.579Z,85
2023-03-22T03:16:18.640Z,85
2023-03-22T03:19:18.767Z,85
2023-03-22T03:22:18.580Z,85
2023-03-22T03:25:18.591Z,85
2023-03-22T03:28:18.615Z,85
2023-03-22T03:31:18.613Z,85
2023-03-22T03:34:18.578Z,85
2023-03-22T03:37:18.571Z,85
2023-03-22T03:40:18.593Z,85
2023-03-22T03:43:18.573Z,85
2023-03-22T03:49:18.715Z,85
2023-03-22T03:52:18.566Z,85
2023-03-22T03:55:18.589Z,85
2023-03-22T03:58:18.562Z,85
2023-03-22T04:01:18.578Z,85
2023-03-22T04:04:18.602Z,85
2023-03-22T04:07:18.567Z,85
2023-03-22T04:10:18.575Z,85
2023-03-22T04:13:18.557Z,85
2023-03-22T04:16:18.643Z,86
2023-03-22T04:22:18.596Z,86
2023-03-22T04:25:18.578Z,86
2023-03-22T04:28:18.568Z,86
2023-03-22T04:31:18.613Z,86
2023-03-22T04:34:18.564Z,86
2023-03-22T04:37:18.562Z,86
2023-03-22T04:40:18.580Z,86
2023-03-22T04:43:18.552Z,86
2023-03-22T04:46:18.602Z,86
2023-03-22T04:49:18.567Z,86
2023-03-22T04:52:18.554Z,86
2023-03-22T04:55:18.569Z,86
2023-03-22T04:58:18.556Z,86
2023-03-22T05:01:18.570Z,86
2023-03-22T05:07:18.542Z,86
2023-03-22T05:10:18.550Z,86
2023-03-22T05:13:18.542Z,86
2023-03-22T05:16:18.579Z,86
2023-03-22T05:19:18.546Z,86
2023-03-22T05:22:18.559Z,86
2023-03-22T05:25:18.547Z,86
2023-03-22T05:28:18.541Z,86
2023-03-22T05:31:18.567Z,86
2023-03-22T05:34:18.539Z,86
2023-03-22T05:37:18.548Z,86
2023-03-22T05:40:18.587Z,86
2023-03-22T05:43:19.905Z,86
2023-03-22T05:46:19.793Z,86
2023-03-22T05:49:19.767Z,86
2023-03-22T05:52:19.756Z,86
2023-03-22T05:55:19.754Z,86
2023-03-22T05:58:19.759Z,86
2023-03-22T06:01:19.750Z,86
2023-03-22T06:04:19.736Z,86
2023-03-22T06:07:19.765Z,86
2023-03-22T06:10:19.848Z,86
2023-03-22T06:13:19.880Z,86
2023-03-22T06:16:19.852Z,86
2023-03-22T06:19:19.779Z,86
2023-03-22T06:22:19.739Z,86
2023-03-22T06:25:19.757Z,87
2023-03-22T06:28:19.764Z,87
2023-03-22T06:31:19.794Z,86
2023-03-22T06:34:19.734Z,87
2023-03-22T06:37:19.721Z,87
2023-03-22T06:40:19.719Z,87
2023-03-22T06:46:19.745Z,87
2023-03-22T06:49:19.769Z,87
2023-03-22T06:52:19.733Z,87
2023-03-22T06:55:19.728Z,87
2023-03-22T06:58:19.721Z,87
2023-03-22T07:01:19.740Z,87
2023-03-22T07:04:19.753Z,87
2023-03-22T07:07:19.713Z,87
2023-03-22T07:10:19.738Z,87
2023-03-22T07:16:20.143Z,87
2023-03-22T07:19:19.740Z,87
2023-03-22T07:22:19.726Z,86
2023-03-22T07:25:19.717Z,86
2023-03-22T07:28:19.717Z,86
2023-03-22T07:31:19.722Z,86
2023-03-22T07:34:19.711Z,86
2023-03-22T07:37:19.729Z,86
2023-03-22T07:40:19.713Z,86
2023-03-22T07:43:19.695Z,86
2023-03-22T07:46:19.735Z,86
2023-03-22T07:49:19.688Z,86
2023-03-22T07:52:19.694Z,86
2023-03-22T07:55:19.712Z,86
2023-03-22T07:58:19.697Z,85
2023-03-22T08:01:19.703Z,85
2023-03-22T08:04:19.702Z,85
2023-03-22T08:07:19.698Z,85
2023-03-22T08:10:19.731Z,85
2023-03-22T08:13:19.696Z,85
2023-03-22T08:16:19.767Z,85
2023-03-22T08:19:19.718Z,85
2023-03-22T08:22:19.679Z,85
2023-03-22T08:25:19.709Z,85
2023-03-22T08:28:19.701Z,85
2023-03-22T08:31:19.771Z,85
2023-03-22T08:34:19.696Z,85
2023-03-22T08:37:19.688Z,85
2023-03-22T08:40:19.704Z,85
2023-03-22T08:43:19.683Z,85
2023-03-22T08:46:19.751Z,84
2023-03-22T08:49:19.699Z,84
2023-03-22T08:52:19.706Z,84
2023-03-22T08:55:19.702Z,84
2023-03-22T08:58:19.683Z,84
2023-03-22T09:01:19.748Z,84
2023-03-22T09:04:19.724Z,84
2023-03-22T09:07:19.678Z,84
2023-03-22T09:10:19.681Z,84
2023-03-22T09:13:19.672Z,84
2023-03-22T09:16:19.755Z,84
2023-03-22T09:19:19.681Z,83
2023-03-22T09:22:19.687Z,83
2023-03-22T09:25:19.676Z,83
2023-03-22T09:28:19.730Z,83
2023-03-22T09:31:20.628Z,82
2023-03-22T09:34:19.670Z,82
2023-03-22T09:37:19.663Z,82
2023-03-22T09:40:19.681Z,82
2023-03-22T09:43:19.662Z,82
2023-03-22T09:46:19.744Z,82
2023-03-22T09:49:19.668Z,82
2023-03-22T09:52:19.765Z,81
2023-03-22T09:55:19.672Z,81
2023-03-22T09:58:19.658Z,81
2023-03-22T10:01:20.965Z,81
2023-03-22T10:04:19.707Z,81
2023-03-22T10:07:19.652Z,81
2023-03-22T10:10:19.671Z,80
2023-03-22T10:13:19.703Z,80
2023-03-22T10:16:19.724Z,80
2023-03-22T10:22:19.682Z,80
2023-03-22T10:25:19.686Z,79
2023-03-22T10:28:19.668Z,79
2023-03-22T10:31:19.678Z,79
2023-03-22T10:34:19.677Z,79
2023-03-22T10:37:19.654Z,78
2023-03-22T10:40:19.683Z,78
2023-03-22T10:43:19.657Z,78
2023-03-22T10:46:19.686Z,78
2023-03-22T10:49:19.673Z,78
2023-03-22T10:52:19.653Z,77
2023-03-22T10:55:19.684Z,77
2023-03-22T10:58:20.392Z,77
2023-03-22T11:01:20.390Z,77
2023-03-22T11:04:20.281Z,77
2023-03-22T11:07:20.278Z,76
2023-03-22T11:10:20.317Z,76
2023-03-22T11:13:20.275Z,76
2023-03-22T11:16:20.345Z,76
2023-03-22T11:19:20.299Z,76
2023-03-22T11:22:20.257Z,76
2023-03-22T11:25:20.265Z,75
2023-03-22T11:28:20.267Z,74
2023-03-22T11:31:20.303Z,74
2023-03-22T11:34:20.255Z,73
2023-03-22T11:37:20.259Z,73
2023-03-22T11:40:20.247Z,73
2023-03-22T11:43:20.264Z,73
2023-03-22T11:46:20.341Z,73
2023-03-22T11:49:20.266Z,72
2023-03-22T11:52:20.271Z,72
2023-03-22T11:55:20.251Z,72
2023-03-22T11:58:21.184Z,72
2023-03-22T12:01:20.232Z,72
2023-03-22T12:04:20.292Z,71
2023-03-22T12:07:20.231Z,72
2023-03-22T12:10:20.233Z,72
2023-03-22T12:13:20.219Z,72
2023-03-22T12:16:20.554Z,71
2023-03-22T12:19:20.217Z,71
2023-03-22T12:22:20.225Z,71
2023-03-22T12:25:20.263Z,71
2023-03-22T12:28:20.226Z,71
2023-03-22T12:31:20.229Z,71
2023-03-22T12:34:20.234Z,70
2023-03-22T12:37:20.220Z,70
2023-03-22T12:40:20.234Z,70
2023-03-22T12:43:20.213Z,70
2023-03-22T12:46:20.252Z,69
2023-03-22T12:49:20.213Z,69
2023-03-22T12:52:20.211Z,69
2023-03-22T12:55:20.236Z,69
2023-03-22T13:01:20.249Z,68
2023-03-22T13:04:20.324Z,68
2023-03-22T13:07:20.219Z,68
2023-03-22T13:13:20.205Z,68
2023-03-22T13:16:20.241Z,68
2023-03-22T13:19:20.248Z,68
2023-03-22T13:22:20.200Z,67
2023-03-22T13:25:20.207Z,67
2023-03-22T13:28:20.200Z,67
2023-03-22T13:31:20.216Z,67
2023-03-22T13:34:20.201Z,67
2023-03-22T13:37:20.197Z,67
2023-03-22T13:40:20.202Z,66
2023-03-22T13:43:20.194Z,66
2023-03-22T13:46:20.387Z,66
2023-03-22T13:49:20.180Z,66
2023-03-22T13:52:20.188Z,66
2023-03-22T13:55:20.189Z,66
2023-03-22T13:58:20.191Z,65
2023-03-22T14:01:20.196Z,66
2023-03-22T14:04:20.177Z,66
2023-03-22T14:07:20.186Z,66
2023-03-22T14:10:20.188Z,65
2023-03-22T14:13:20.207Z,65
2023-03-22T14:19:20.177Z,65
2023-03-22T14:52:20.171Z,65
2023-03-22T14:55:20.186Z,65
2023-03-22T14:58:20.164Z,65
2023-03-22T15:01:20.182Z,65
2023-03-22T15:04:20.174Z,65
2023-03-22T15:07:20.169Z,65
2023-03-22T15:10:20.167Z,65
2023-03-22T15:13:20.165Z,65
2023-03-22T15:16:20.217Z,65
2023-03-22T15:19:20.173Z,65
2023-03-22T15:22:20.164Z,65
2023-03-22T15:25:20.168Z,65
2023-03-22T15:28:20.168Z,65
2023-03-22T15:31:20.160Z,65
2023-03-22T15:34:20.166Z,65
2023-03-22T15:37:20.172Z,65
2023-03-22T15:40:20.179Z,65
2023-03-22T15:43:20.147Z,65
2023-03-22T15:46:20.235Z,65
2023-03-22T15:49:20.157Z,65
2023-03-22T15:52:20.168Z,65
2023-03-22T15:55:20.176Z,65
2023-03-22T15:58:21.800Z,65
2023-03-22T16:01:20.204Z,65
2023-03-22T16:04:20.150Z,65
2023-03-22T16:07:20.165Z,65
2023-03-22T16:10:20.174Z,65
2023-03-22T16:13:20.140Z,65
2023-03-22T16:16:20.176Z,65
2023-03-22T16:19:20.154Z,66
2023-03-22T16:22:20.145Z,66
2023-03-22T16:25:20.196Z,66
2023-03-22T16:28:20.141Z,66
2023-03-22T16:31:20.194Z,66
2023-03-22T16:34:20.156Z,66
2023-03-22T16:37:20.175Z,66
2023-03-22T16:40:20.190Z,66
2023-03-22T16:43:20.140Z,66
2023-03-22T16:46:20.159Z,66
2023-03-22T16:49:20.138Z,66
2023-03-22T16:52:20.140Z,66
2023-03-22T16:55:20.155Z,66
2023-03-22T16:58:20.133Z,66
2023-03-22T17:01:20.169Z,66
2023-03-22T17:04:20.136Z,66
2023-03-22T17:07:20.133Z,66
2023-03-22T17:10:20.129Z,66
2023-03-22T17:13:20.131Z,66
2023-03-22T17:16:20.146Z,66
2023-03-22T17:19:20.132Z,67
2023-03-22T17:22:20.286Z,67
2023-03-22T17:25:20.126Z,67
2023-03-22T17:28:20.120Z,67
2023-03-22T17:31:20.138Z,67
2023-03-22T17:34:20.108Z,67
2023-03-22T17:37:20.131Z,67
2023-03-22T17:40:31.640Z,67
2023-03-22T17:43:20.166Z,67
2023-03-22T17:49:20.225Z,67
2023-03-22T17:52:20.117Z,67
2023-03-22T17:55:26.902Z,67
2023-03-22T17:58:34.936Z,67
2023-03-22T18:01:20.126Z,67
2023-03-22T18:04:20.353Z,67
2023-03-22T18:07:20.108Z,67
2023-03-22T18:10:20.135Z,67
2023-03-22T18:13:20.171Z,67
2023-03-22T18:16:20.164Z,67
2023-03-22T18:19:20.254Z,67
2023-03-22T18:22:20.185Z,67
2023-03-22T18:25:20.466Z,67
2023-03-22T18:28:20.149Z,67
2023-03-22T18:31:20.176Z,67
2023-03-22T18:34:20.176Z,67
2023-03-22T18:37:20.191Z,67
2023-03-22T18:40:54.347Z,68
2023-03-22T18:43:20.152Z,68
2023-03-22T18:46:20.218Z,68
2023-03-22T18:49:20.164Z,68
2023-03-22T18:52:36.370Z,68
2023-03-22T18:55:25.248Z,68
2023-03-22T18:58:20.156Z,67
2023-03-22T19:01:20.698Z,67
2023-03-22T19:07:30.278Z,67
2023-03-22T19:10:20.172Z,67
2023-03-22T19:13:20.145Z,67
2023-03-22T19:16:20.145Z,67
2023-03-22T19:19:20.166Z,66
2023-03-22T19:22:20.149Z,66
2023-03-22T19:25:20.140Z,66
2023-03-22T19:28:20.143Z,66
2023-03-22T19:31:20.149Z,65
2023-03-22T19:34:20.177Z,65
2023-03-22T19:37:20.144Z,65
2023-03-22T19:41:15.254Z,65
2023-03-22T19:43:20.148Z,65
2023-03-22T19:46:20.152Z,65
2023-03-22T19:49:20.153Z,65
2023-03-22T19:52:20.162Z,65
2023-03-22T19:55:20.153Z,65
2023-03-22T19:58:20.141Z,65
2023-03-22T20:01:20.137Z,65
2023-03-22T20:04:20.149Z,65
2023-03-22T20:07:20.149Z,65
2023-03-22T20:10:20.167Z,64
2023-03-22T20:13:20.195Z,64
2023-03-22T20:16:20.285Z,64
2023-03-22T20:19:20.190Z,64
2023-03-22T20:22:20.166Z,64
2023-03-22T20:25:20.152Z,64
2023-03-22T20:28:20.143Z,64
2023-03-22T20:31:20.141Z,64
2023-03-22T20:34:20.151Z,64
2023-03-22T20:37:20.124Z,64
2023-03-22T20:40:20.153Z,64
2023-03-22T20:43:20.132Z,64
2023-03-22T20:46:20.129Z,64
2023-03-22T20:49:20.140Z,64
2023-03-22T20:52:20.110Z,64
2023-03-22T20:55:20.195Z,64
2023-03-22T20:58:20.113Z,64
2023-03-22T21:01:20.134Z,64
2023-03-22T21:04:20.128Z,64
2023-03-22T21:07:20.120Z,64
2023-03-22T21:10:20.139Z,64
2023-03-22T21:13:20.118Z,64
2023-03-22T21:16:20.104Z,64
2023-03-22T21:19:20.132Z,64
2023-03-22T21:22:20.111Z,64
2023-03-22T21:25:20.125Z,64
2023-03-22T21:28:20.114Z,64
2023-03-22T21:31:20.395Z,64
2023-03-22T21:34:20.124Z,64
2023-03-22T21:37:20.112Z,64
2023-03-22T21:43:20.126Z,64
2023-03-22T21:46:20.102Z,64
2023-03-22T21:49:20.121Z,64
2023-03-22T21:52:20.113Z,64
2023-03-22T21:55:20.134Z,64
2023-03-22T21:58:20.109Z,64
2023-03-22T22:01:20.101Z,64
2023-03-22T22:04:20.124Z,64
2023-03-22T22:07:20.102Z,64
2023-03-22T22:10:20.104Z,64
2023-03-22T22:13:20.119Z,64
2023-03-22T22:16:20.108Z,64
2023-03-22T22:19:20.097Z,64
2023-03-22T22:22:20.105Z,64
2023-03-22T22:25:20.122Z,64
2023-03-22T22:28:20.108Z,64
2023-03-22T22:31:20.093Z,64
2023-03-22T22:34:20.087Z,64
2023-03-22T22:37:20.085Z,64
2023-03-22T22:40:20.106Z,64
2023-03-22T22:43:20.093Z,64
2023-03-22T22:46:20.080Z,64
2023-03-22T22:49:20.096Z,64
2023-03-22T22:52:20.092Z,64
2023-03-22T22:55:20.098Z,64
2023-03-22T22:58:20.088Z,64
2023-03-22T23:01:20.073Z,64
2023-03-22T23:04:20.082Z,64
2023-03-22T23:07:20.068Z,64
2023-03-22T23:10:20.091Z,64
2023-03-22T23:13:20.066Z,64
2023-03-22T23:16:20.064Z,64
2023-03-22T23:22:20.091Z,64
2023-03-22T23:25:20.079Z,64
2023-03-22T23:28:20.075Z,64
2023-03-22T23:31:20.077Z,64
2023-03-22T23:34:20.075Z,64
2023-03-22T23:37:20.064Z,64
2023-03-22T23:40:20.061Z,64
2023-03-22T23:43:20.063Z,64
2023-03-22T23:46:20.060Z,64
2023-03-22T23:49:20.076Z,64
2023-03-22T23:52:20.077Z,64
2023-03-22T23:55:20.086Z,64
2023-03-22T23:58:20.057Z,64
